createdAt,value
2019-03-26T00:02:19.928Z,77.60
2019-03-26T00:05:23.283Z,77.79
2019-03-26T00:08:26.593Z,77.44
2019-03-26T00:11:29.899Z,75.78
2019-03-26T00:14:33.177Z,75.28
2019-03-26T00:17:36.468Z,74.78
2019-03-26T00:20:39.767Z,75.04
2019-03-26T00:23:43.075Z,74.92
2019-03-26T00:26:46.367Z,74.72
2019-03-26T00:29:49.657Z,74.50
2019-03-26T00:32:53.037Z,74.46
2019-03-26T00:35:56.337Z,73.96
2019-03-26T00:38:59.644Z,73.45
2019-03-26T00:42:02.934Z,73.37
2019-03-26T00:45:07.122Z,73.18
2019-03-26T00:48:10.420Z,73.19
2019-03-26T00:51:13.706Z,73.44
2019-03-26T00:54:17.006Z,73.54
2019-03-26T00:57:20.308Z,74.08
2019-03-26T01:00:35.820Z,73.91
2019-03-26T01:03:39.124Z,73.60
2019-03-26T01:06:42.490Z,73.20
2019-03-26T01:09:45.800Z,73.13
2019-03-26T01:12:49.164Z,73.08
2019-03-26T01:15:52.460Z,73.03
2019-03-26T01:18:55.760Z,73.15
2019-03-26T01:21:59.089Z,74.01
2019-03-26T01:25:02.378Z,73.43
2019-03-26T01:28:05.684Z,73.74
2019-03-26T01:31:08.988Z,74.73
2019-03-26T01:34:12.298Z,74.64
2019-03-26T01:37:15.608Z,74.94
2019-03-26T01:40:18.889Z,75.06
2019-03-26T01:43:22.205Z,75.11
2019-03-26T01:46:25.491Z,74.25
2019-03-26T01:49:28.786Z,74.09
2019-03-26T01:52:32.081Z,74.56
2019-03-26T01:55:35.378Z,74.48
2019-03-26T01:58:38.684Z,74.95
2019-03-26T02:01:41.977Z,75.10
2019-03-26T02:04:58.835Z,75.35
2019-03-26T02:07:50.307Z,75.23
2019-03-26T02:10:53.607Z,76.08
2019-03-26T02:13:56.903Z,75.01
2019-03-26T02:17:00.225Z,75.05
2019-03-26T02:20:05.055Z,74.98
2019-03-26T02:23:08.353Z,74.73
2019-03-26T02:26:11.662Z,74.78
2019-03-26T02:29:14.958Z,74.84
2019-03-26T02:32:18.248Z,74.79
2019-03-26T02:35:21.571Z,75.03
2019-03-26T02:38:24.864Z,76.01
2019-03-26T02:41:28.164Z,76.02
2019-03-26T02:44:31.462Z,75.44
2019-03-26T02:47:34.775Z,75.61
2019-03-26T02:50:38.066Z,75.41
2019-03-26T02:53:41.377Z,75.67
2019-03-26T02:56:44.679Z,75.57
2019-03-26T02:59:47.997Z,74.83
2019-03-26T03:02:51.292Z,74.86
2019-03-26T03:05:54.607Z,74.71
2019-03-26T03:08:57.908Z,74.68
2019-03-26T03:12:01.224Z,75.10
2019-03-26T03:15:05.865Z,75.10
2019-03-26T03:18:09.199Z,75.23
2019-03-26T03:21:12.520Z,75.29
2019-03-26T03:24:15.837Z,75.82
2019-03-26T03:27:19.133Z,76.44
2019-03-26T03:30:22.461Z,76.44
2019-03-26T03:33:25.774Z,76.90
2019-03-26T03:36:29.077Z,77.25
2019-03-26T03:39:32.423Z,77.41
2019-03-26T03:42:35.864Z,77.48
2019-03-26T03:45:39.171Z,78.06
2019-03-26T03:48:42.645Z,79.36
2019-03-26T03:51:45.943Z,79.60
2019-03-26T03:54:49.289Z,79.18
2019-03-26T03:57:53.189Z,78.89
2019-03-26T04:00:56.609Z,79.15
2019-03-26T04:03:59.948Z,78.74
2019-03-26T04:07:03.288Z,78.92
2019-03-26T04:10:06.625Z,79.11
2019-03-26T04:13:09.933Z,79.14
2019-03-26T04:16:13.244Z,79.25
2019-03-26T04:19:16.565Z,79.64
2019-03-26T04:22:19.872Z,80.01
2019-03-26T04:25:23.212Z,80.14
2019-03-26T04:28:26.501Z,80.15
2019-03-26T04:31:29.819Z,79.99
2019-03-26T04:34:33.165Z,80.04
2019-03-26T04:37:36.500Z,80.23
2019-03-26T04:40:39.818Z,80.42
2019-03-26T04:43:43.125Z,80.08
2019-03-26T04:46:46.498Z,79.57
2019-03-26T04:49:49.783Z,79.71
2019-03-26T04:52:53.097Z,80.31
2019-03-26T04:55:56.390Z,80.31
2019-03-26T04:58:59.877Z,79.86
2019-03-26T05:02:03.197Z,79.10
2019-03-26T05:05:06.591Z,79.32
2019-03-26T05:08:09.909Z,79.10
2019-03-26T05:11:13.226Z,78.61
2019-03-26T05:14:16.548Z,78.77
2019-03-26T05:17:20.044Z,78.86
2019-03-26T05:20:23.369Z,79.30
2019-03-26T05:23:26.674Z,79.04
2019-03-26T05:26:29.969Z,79.15
2019-03-26T05:29:33.358Z,79.02
2019-03-26T05:32:36.765Z,78.05
2019-03-26T05:35:40.082Z,77.75
2019-03-26T05:38:43.394Z,77.99
2019-03-26T05:41:46.713Z,77.43
2019-03-26T05:44:50.056Z,77.71
2019-03-26T05:47:53.413Z,77.92
2019-03-26T05:50:56.743Z,76.44
2019-03-26T05:54:00.051Z,75.94
2019-03-26T05:57:03.358Z,75.49
2019-03-26T06:00:12.989Z,74.64
2019-03-26T06:03:16.315Z,72.00
2019-03-26T06:06:19.612Z,69.29
2019-03-26T06:09:22.928Z,69.64
2019-03-26T06:12:26.244Z,69.04
2019-03-26T06:15:29.570Z,69.30
2019-03-26T06:18:32.916Z,69.79
2019-03-26T06:21:36.175Z,71.07
2019-03-26T06:24:39.489Z,71.24
2019-03-26T06:27:42.823Z,71.03
2019-03-26T06:30:46.143Z,70.92
2019-03-26T06:33:49.457Z,70.64
2019-03-26T06:36:52.750Z,71.28
2019-03-26T06:39:58.380Z,71.81
2019-03-26T06:43:01.132Z,72.30
2019-03-26T06:46:04.431Z,72.64
2019-03-26T06:49:07.809Z,73.01
2019-03-26T06:52:11.148Z,73.91
2019-03-26T06:55:14.635Z,74.46
2019-03-26T06:58:17.947Z,75.00
2019-03-26T07:01:21.259Z,75.10
2019-03-26T07:04:24.595Z,75.42
2019-03-26T07:07:31.854Z,75.12
2019-03-26T07:10:32.920Z,74.29
2019-03-26T07:13:36.228Z,74.14
2019-03-26T07:16:39.577Z,73.70
2019-03-26T07:19:42.946Z,73.64
2019-03-26T07:22:46.270Z,73.99
2019-03-26T07:25:49.579Z,73.14
2019-03-26T07:28:52.878Z,73.37
2019-03-26T07:31:56.212Z,73.14
2019-03-26T07:34:59.519Z,73.01
2019-03-26T07:38:02.823Z,73.37
2019-03-26T07:41:06.134Z,73.21
2019-03-26T07:44:09.433Z,73.26
2019-03-26T07:47:12.754Z,72.82
2019-03-26T07:50:16.089Z,72.65
2019-03-26T07:53:19.384Z,72.91
2019-03-26T07:56:22.693Z,72.71
2019-03-26T07:59:25.995Z,71.87
2019-03-26T08:02:29.322Z,70.10
2019-03-26T08:05:32.647Z,70.61
2019-03-26T08:08:35.948Z,69.22
2019-03-26T08:11:39.257Z,67.22
2019-03-26T08:14:42.583Z,66.77
2019-03-26T08:17:45.888Z,66.05
2019-03-26T08:20:49.227Z,65.25
2019-03-26T08:23:52.521Z,66.18
2019-03-26T08:26:55.847Z,65.78
2019-03-26T08:29:59.164Z,65.93
2019-03-26T08:33:02.480Z,66.28
2019-03-26T08:36:05.855Z,65.26
2019-03-26T08:39:09.162Z,64.44
2019-03-26T08:42:12.498Z,64.12
2019-03-26T08:45:16.086Z,62.16
2019-03-26T08:48:19.398Z,61.53
2019-03-26T08:51:22.707Z,61.00
2019-03-26T08:54:26.014Z,60.74
2019-03-26T08:57:29.328Z,60.36
2019-03-26T09:00:32.713Z,58.70
2019-03-26T09:03:35.939Z,55.32
2019-03-26T09:06:39.430Z,50.05
2019-03-26T09:09:42.740Z,46.67
2019-03-26T09:12:46.071Z,48.27
2019-03-26T09:15:49.349Z,47.90
2019-03-26T09:18:52.670Z,50.87
2019-03-26T09:21:55.986Z,51.39
2019-03-26T09:24:59.285Z,52.11
2019-03-26T09:28:02.595Z,53.31
2019-03-26T09:31:05.907Z,53.25
2019-03-26T09:34:10.032Z,53.43
2019-03-26T09:37:13.517Z,52.86
2019-03-26T09:40:16.823Z,54.58
2019-03-26T09:43:20.126Z,54.50
2019-03-26T09:46:23.433Z,53.80
2019-03-26T09:49:26.747Z,53.65
2019-03-26T09:52:30.064Z,51.60
2019-03-26T09:55:33.383Z,48.57
2019-03-26T09:58:36.699Z,49.42
2019-03-26T10:01:40.004Z,47.79
2019-03-26T10:04:43.354Z,46.20
2019-03-26T10:07:46.645Z,46.72
2019-03-26T10:10:49.934Z,46.14
2019-03-26T10:13:54.527Z,45.78
2019-03-26T10:16:57.781Z,46.90
2019-03-26T10:20:01.162Z,47.64
2019-03-26T10:23:04.482Z,48.03
2019-03-26T10:26:07.803Z,49.39
2019-03-26T10:29:28.883Z,49.67
2019-03-26T10:32:16.128Z,51.35
2019-03-26T10:35:19.434Z,52.11
2019-03-26T10:38:22.753Z,51.22
2019-03-26T10:41:26.049Z,50.40
2019-03-26T10:44:29.391Z,49.71
2019-03-26T10:47:32.702Z,49.61
2019-03-26T10:50:36.028Z,49.46
2019-03-26T10:53:39.340Z,48.97
2019-03-26T10:56:42.644Z,49.20
2019-03-26T10:59:45.975Z,49.14
2019-03-26T11:02:49.268Z,49.67
2019-03-26T11:05:52.593Z,49.96
2019-03-26T11:08:55.925Z,50.71
2019-03-26T11:11:59.207Z,51.33
2019-03-26T11:15:02.864Z,52.50
2019-03-26T11:18:06.165Z,51.80
2019-03-26T11:21:09.473Z,52.69
2019-03-26T11:24:12.801Z,53.16
2019-03-26T11:27:16.095Z,53.38
2019-03-26T11:30:19.473Z,52.69
2019-03-26T11:33:22.850Z,52.99
2019-03-26T11:36:26.159Z,52.80
2019-03-26T11:39:32.919Z,50.97
2019-03-26T11:42:34.479Z,50.81
2019-03-26T11:45:37.777Z,50.90
2019-03-26T11:48:41.074Z,49.83
2019-03-26T11:51:44.401Z,50.23
2019-03-26T11:54:47.690Z,50.63
2019-03-26T11:57:51.013Z,50.20
2019-03-26T12:00:54.314Z,50.77
2019-03-26T12:03:57.625Z,50.65
2019-03-26T12:07:00.922Z,50.37
2019-03-26T12:10:06.459Z,50.98
2019-03-26T12:13:09.760Z,50.66
2019-03-26T12:16:13.055Z,51.57
2019-03-26T12:19:16.362Z,51.21
2019-03-26T12:22:19.662Z,51.81
2019-03-26T12:25:22.985Z,50.51
2019-03-26T12:28:26.314Z,50.51
2019-03-26T12:31:29.652Z,50.05
2019-03-26T12:34:32.950Z,50.30
2019-03-26T12:37:36.271Z,50.97
2019-03-26T12:40:39.579Z,51.28
2019-03-26T12:43:42.895Z,51.83
2019-03-26T12:46:46.208Z,51.91
2019-03-26T12:49:49.536Z,51.08
2019-03-26T12:52:52.849Z,51.37
2019-03-26T12:55:56.161Z,50.94
2019-03-26T12:58:59.472Z,51.10
2019-03-26T13:02:02.772Z,51.31
2019-03-26T13:05:07.176Z,51.48
2019-03-26T13:08:10.498Z,51.46
2019-03-26T13:11:16.907Z,51.34
2019-03-26T13:14:18.818Z,51.76
2019-03-26T13:17:22.124Z,51.88
2019-03-26T13:20:25.441Z,52.63
2019-03-26T13:23:28.835Z,52.46
2019-03-26T13:26:32.138Z,51.71
2019-03-26T13:29:35.457Z,52.17
2019-03-26T13:32:38.964Z,51.50
2019-03-26T13:35:42.285Z,51.56
2019-03-26T13:38:45.598Z,51.57
2019-03-26T13:41:48.910Z,51.03
2019-03-26T13:44:52.235Z,50.79
2019-03-26T13:47:55.533Z,51.17
2019-03-26T13:50:58.855Z,50.26
2019-03-26T13:54:02.269Z,50.25
2019-03-26T13:57:05.573Z,50.13
2019-03-26T14:00:09.030Z,49.98
2019-03-26T14:03:12.341Z,49.51
2019-03-26T14:06:15.669Z,49.63
2019-03-26T14:09:19.000Z,50.06
2019-03-26T14:12:22.371Z,50.27
2019-03-26T14:15:25.678Z,51.36
2019-03-26T14:18:28.999Z,50.69
2019-03-26T14:21:32.293Z,50.99
2019-03-26T14:24:35.598Z,50.98
2019-03-26T14:27:38.925Z,51.78
2019-03-26T14:30:43.130Z,51.20
2019-03-26T14:33:46.409Z,50.00
2019-03-26T14:36:49.738Z,50.02
2019-03-26T14:39:54.573Z,50.87
2019-03-26T14:42:57.958Z,50.92
2019-03-26T14:46:01.336Z,50.39
2019-03-26T14:49:04.650Z,51.09
2019-03-26T14:52:08.154Z,51.53
2019-03-26T14:55:11.475Z,52.19
2019-03-26T14:58:14.766Z,52.96
2019-03-26T15:01:18.082Z,53.74
2019-03-26T15:04:40.802Z,53.44
2019-03-26T15:07:44.167Z,54.33
2019-03-26T15:10:52.627Z,54.80
2019-03-26T15:13:56.133Z,55.76
2019-03-26T15:16:59.430Z,56.20
2019-03-26T15:20:02.985Z,56.90
2019-03-26T15:23:06.345Z,57.41
2019-03-26T15:26:09.613Z,57.32
2019-03-26T15:29:12.921Z,57.62
2019-03-26T15:32:16.235Z,57.95
2019-03-26T15:35:19.518Z,58.00
2019-03-26T15:38:23.156Z,58.59
2019-03-26T15:41:26.476Z,59.04
2019-03-26T15:44:29.767Z,59.85
2019-03-26T15:47:33.073Z,60.27
2019-03-26T15:50:44.664Z,60.41
2019-03-26T15:53:48.042Z,60.78
2019-03-26T15:56:51.379Z,61.41
2019-03-26T15:59:54.672Z,61.81
2019-03-26T16:02:58.059Z,62.52
2019-03-26T16:06:01.470Z,63.13
2019-03-26T16:09:07.600Z,62.83
2019-03-26T16:12:10.997Z,63.25
2019-03-26T16:15:14.286Z,63.36
2019-03-26T16:18:17.584Z,63.32
2019-03-26T16:21:20.901Z,63.30
2019-03-26T16:24:24.182Z,63.58
2019-03-26T16:27:27.504Z,63.76
2019-03-26T16:30:32.961Z,63.39
2019-03-26T16:33:35.845Z,63.82
2019-03-26T16:36:39.179Z,63.37
2019-03-26T16:39:42.528Z,63.71
2019-03-26T16:42:45.846Z,63.20
2019-03-26T16:45:49.130Z,63.22
2019-03-26T16:48:52.469Z,64.35
2019-03-26T16:51:55.784Z,65.34
2019-03-26T16:54:59.071Z,68.47
2019-03-26T16:58:02.376Z,70.44
2019-03-26T17:01:07.264Z,71.11
2019-03-26T17:04:10.491Z,72.25
2019-03-26T17:07:13.808Z,72.60
2019-03-26T17:10:17.140Z,73.78
2019-03-26T17:13:20.468Z,74.42
2019-03-26T17:16:23.757Z,73.55
2019-03-26T17:19:27.084Z,73.87
2019-03-26T17:22:30.406Z,74.64
2019-03-26T17:25:33.689Z,73.96
2019-03-26T17:28:37.025Z,73.66
2019-03-26T17:31:40.326Z,74.14
2019-03-26T17:34:43.649Z,73.47
2019-03-26T17:37:58.876Z,73.41
2019-03-26T17:40:51.999Z,73.23
2019-03-26T17:43:55.318Z,73.85
2019-03-26T17:46:58.606Z,73.25
2019-03-26T17:50:02.022Z,73.03
2019-03-26T17:53:05.307Z,73.20
2019-03-26T17:56:08.612Z,74.13
2019-03-26T17:59:11.972Z,73.76
2019-03-26T18:02:15.351Z,73.84
2019-03-26T18:05:24.429Z,73.74
2019-03-26T18:08:27.799Z,73.47
2019-03-26T18:11:31.128Z,72.72
2019-03-26T18:14:34.516Z,72.69
2019-03-26T18:17:37.863Z,73.36
2019-03-26T18:20:42.795Z,72.01
2019-03-26T18:23:46.099Z,71.78
2019-03-26T18:26:49.471Z,72.52
2019-03-26T18:29:52.800Z,72.31
2019-03-26T18:32:56.100Z,71.89
2019-03-26T18:35:59.479Z,72.08
2019-03-26T18:39:04.628Z,72.50
2019-03-26T18:42:07.934Z,73.03
2019-03-26T18:45:11.286Z,73.42
2019-03-26T18:48:14.601Z,75.00
2019-03-26T18:51:17.917Z,75.59
2019-03-26T18:54:21.244Z,76.24
2019-03-26T18:57:24.532Z,76.04
2019-03-26T19:00:34.811Z,75.46
2019-03-26T19:03:38.134Z,74.82
2019-03-26T19:06:41.432Z,74.95
2019-03-26T19:09:45.613Z,75.32
2019-03-26T19:12:56.855Z,75.69
2019-03-26T19:15:54.037Z,75.52
2019-03-26T19:18:57.366Z,75.70
2019-03-26T19:22:00.927Z,75.33
2019-03-26T19:25:05.607Z,75.15
2019-03-26T19:28:09.016Z,74.90
2019-03-26T19:31:12.454Z,75.08
2019-03-26T19:34:15.848Z,74.76
2019-03-26T19:37:19.158Z,74.29
2019-03-26T19:40:22.469Z,74.31
2019-03-26T19:43:25.802Z,74.72
2019-03-26T19:46:29.109Z,74.70
2019-03-26T19:49:32.516Z,74.70
2019-03-26T19:52:35.849Z,75.07
2019-03-26T19:55:39.186Z,75.43
2019-03-26T19:58:44.474Z,75.19
2019-03-26T20:01:47.878Z,75.14
2019-03-26T20:04:51.217Z,75.15
2019-03-26T20:07:54.548Z,75.18
2019-03-26T20:10:57.859Z,75.05
2019-03-26T20:14:01.163Z,74.76
2019-03-26T20:17:04.497Z,74.53
2019-03-26T20:20:07.858Z,74.95
2019-03-26T20:23:11.183Z,74.67
2019-03-26T20:26:14.568Z,74.53
2019-03-26T20:29:17.861Z,74.43
2019-03-26T20:32:21.164Z,74.57
2019-03-26T20:35:24.455Z,74.25
2019-03-26T20:38:27.803Z,73.98
2019-03-26T20:41:31.106Z,74.07
2019-03-26T20:44:34.427Z,73.85
2019-03-26T20:47:37.736Z,73.93
2019-03-26T20:50:41.077Z,73.88
2019-03-26T20:53:44.462Z,74.10
2019-03-26T20:56:47.783Z,74.40
2019-03-26T20:59:51.118Z,74.33
2019-03-26T21:02:54.451Z,74.45
2019-03-26T21:05:57.804Z,74.27
2019-03-26T21:09:01.157Z,74.36
2019-03-26T21:12:04.526Z,74.74
2019-03-26T21:15:09.537Z,74.68
2019-03-26T21:18:12.863Z,74.76
2019-03-26T21:21:16.182Z,74.77
2019-03-26T21:24:19.525Z,74.39
2019-03-26T21:27:22.869Z,74.71
2019-03-26T21:30:27.943Z,74.51
2019-03-26T21:33:31.263Z,74.57
2019-03-26T21:36:34.592Z,74.78
2019-03-26T21:39:42.337Z,74.71
2019-03-26T21:42:45.647Z,74.98
2019-03-26T21:45:48.990Z,74.67
2019-03-26T21:48:52.327Z,74.45
2019-03-26T21:51:55.650Z,74.31
2019-03-26T21:54:58.971Z,74.89
2019-03-26T21:58:02.307Z,74.76
2019-03-26T22:01:05.611Z,74.82
2019-03-26T22:04:08.951Z,74.87
2019-03-26T22:07:12.272Z,75.27
2019-03-26T22:10:16.471Z,75.80
2019-03-26T22:13:19.805Z,76.47
2019-03-26T22:16:23.129Z,76.57
2019-03-26T22:19:28.763Z,76.49
2019-03-26T22:22:31.479Z,76.73
2019-03-26T22:25:34.787Z,77.15
2019-03-26T22:28:38.106Z,77.27
2019-03-26T22:31:41.409Z,77.49
2019-03-26T22:34:44.731Z,77.81
2019-03-26T22:37:48.063Z,77.42
2019-03-26T22:40:51.379Z,77.21
2019-03-26T22:43:55.254Z,77.54
2019-03-26T22:46:58.713Z,76.91
2019-03-26T22:50:02.034Z,76.70
2019-03-26T22:53:05.385Z,76.85
2019-03-26T22:56:08.708Z,76.68
2019-03-26T22:59:12.047Z,76.62
2019-03-26T23:02:15.394Z,76.97
2019-03-26T23:05:18.786Z,76.81
2019-03-26T23:08:22.095Z,77.27
2019-03-26T23:11:25.375Z,77.16
2019-03-26T23:14:28.696Z,77.47
2019-03-26T23:17:32.001Z,77.91
2019-03-26T23:20:35.328Z,78.72
2019-03-26T23:23:38.641Z,79.03
2019-03-26T23:26:41.984Z,78.70
2019-03-26T23:29:45.283Z,78.86
2019-03-26T23:32:48.624Z,78.58
2019-03-26T23:35:51.937Z,79.18
2019-03-26T23:38:55.263Z,79.80
2019-03-26T23:41:58.726Z,80.05
2019-03-26T23:45:02.074Z,80.29
2019-03-26T23:48:05.359Z,80.66
2019-03-26T23:51:08.677Z,81.01
2019-03-26T23:54:12.022Z,80.97
2019-03-26T23:57:15.320Z,81.04
